My Meet Scores
Natalia Pfeffer, Aspire Gymnastics Academy - MyMeetScores.com
Top100 | Top Teams | Upcoming Meets | Completed Meets | Latest | Add Scores | Help| Support | Bookmark and Share

Natalia Pfeffer, Aspire Gymnastics Academy
Personal Bests
LevelVault BarsBeamFloorAA
39.4009.600 9.5009.57537.475
49.0009.550 9.5509.17536.550
59.5009.525 9.6259.47537.925
Scores on America's Top 100as of 06.25.2019
Year Level Vault Bars Beam Floor AA
2019 537.925

Click here to view our
exclusive Top 100 Collection
Meet Scores
Date Meet Team Session Level Division Vault Bars Beam Floor AA
2019-03-22 Illinois Gymnastics State Championships Aspire Gymnastics Academy 2 5 JR B 9.500 5T 9.325 3 9.625 1 9.475 6 37.925 1
2019-03-08 Lucky Invite Aspire Gymnastics Academy A07 5 Jr A 8.875 7 9.500 2 9.400 2T 9.225 2T 37.000 2
2019-02-23 Kinetic Classic 2019 Aspire Gymnastics Academy 1 5 Younger 8.600 396T 9.300 119T 9.350 84T 8.750 385T 36.000 209T
2019-02-15 Big ClassicBIG CLASSIC Aspire Gymnastics Academy 5B 5 Child A 9.300 3T 9.400 1 9.475 2 8.700 5T 36.875 3
2019-01-25 UGA Invitational Aspire Gymnastics Academy B11 5 Jr A 9.050 12 9.525 1 9.450 2T 9.200 6 37.225 3
2019-01-18 2019 Bravo Classic Aspire Gymnastics Academy 2A 5 Child 8.625 19 8.800 17 8.700 23T 9.350 14 35.475 20
2018-12-14 2018 Aspire Classic Aspire Gymnastics Academy 8A 5 Younger 9.100 16 9.200 8 8.800 17T 8.875 9T 35.975 10
2018-12-07 St. Nick Invite 2018 Aspire Gymnastics Academy 1 5 JrA 8.900 10 9.100 3 9.375 2 9.050 4 36.425 4
2018-11-17 Paul Hamm Thanksgiving Class WOMENS Aspire Gymnastics Academy 5 5 Younger 8.800 13T 8.625 9 9.100 6T 9.175 9T 35.700 9
2018-03-08 Level 4 & 5 State Aspire Gymnastics Academy All 4 Ch D 8.625 11 9.300 1 9.500 2 8.800 13 36.225 3
2018-02-16 Big Classic Aspire Gymnastics Academy 2B 4 Child A 8.225 11 9.425 3T 8.800 9 9.175 7T 35.625 8
2018-01-26 2018 UGA Classic Aspire Gymnastics Academy AA1 4 Jr A 9.000 3T 9.000 3T 9.550 7 9.000 9T 36.550 4
2018-01-19 2018 Bravo Classic Aspire Gymnastics Academy 12B 4 Child 8.200 14 9.100 4 9.250 8 9.050 13T 35.600 9
2017-12-15 2017 Aspire Classic Aspire Gymnastics Academy 3 4 Jr A 7.900 23T 9.200 9 9.325 2 8.650 15T 35.075 11
2017-12-08 St. Nick Invite Aspire Gymnastics Academy 7A 4 JrA 8.525 19 9.200 7 9.200 9 8.650 14 35.575 10
2017-11-16 Paul Hamm Thanksgiving Classic - Women Aspire Gymnastics Academy 7 4 Younger 8.450 16T 9.550 9 8.750 21 8.850 15T 35.600 12T
2017-03-30 2017 Illinois Level 3 & 5 State Aspire Gymnastics Academy All 3 Ch D 9.400 15 9.500 3 9.050 10T 9.275 5 37.225 3
2017-02-24 Kinetic Classic Aspire Gymnastics Academy 4,5,6,7 3 All Ages 9.150 39T 9.150 38T 8.825 53T 9.175 27T 36.300 36
2017-02-18 2017 Great Western Invitational Women's Aspire Gymnastics Academy 2 3 Filly 9.250 6T 9.500 5 9.150 5 9.575 4 37.475 5
2017-01-27 2017 UGA Invitational Aspire Gymnastics Academy B7 3 Jr A 8.850 4T 9.150 4* 9.000 5 9.150 3* 36.150 3T
2017-01-20 2017 Bravo Classic Aspire Gymnastics Academy 10B 3 6-7yrs 9.300 5T 9.600 4 9.500 4 8.650 14 37.050 5
2016-12-16 2016 Aspire Classic Aspire Gymnastics Academy 12 3 Younger 9.000 10T 9.025 8 8.700 1 9.100 2T 35.825 4
2016-12-09 St. Nick Invite Aspire Gymnastics Academy 6 3 All 9.025 23 9.150 5T 8.900 8T 9.150 6 36.225 4T
2016-11-19 Paul Hamm Thanksgiving Classic - 2016 Girls Aspire Gymnastics Academy 6 3 6-7 yrs 8.450 8 9.125 4 8.400 6T 8.800 9 34.775 6
Click here to view our personalized
"Celebrate Your Season"
2018-19 Collection

www.lazysuits.com